Time,TemperatureF,DewpointF,PressureIn,WindDirection,WindDirectionDegrees,WindSpeedMPH,WindSpeedGustMPH,Humidity,HourlyPrecipIn,Conditions,Clouds,dailyrainin,SoftwareType,DateUTC
2013-09-17 00:12:00,65.3,-37.6,30.12,NNE,22,8.9,-999.0,1,-99.99,,,0.00,Acu-Link.com,2013-09-17 04:12:00,
2013-09-17 00:27:00,65.3,-37.6,30.13,NE,45,5.3,-999.0,1,-99.99,,,0.00,Acu-Link.com,2013-09-17 04:27:00,
2013-09-17 00:42:00,64.8,56.3,30.13,NNW,337,7.8,-999.0,74,-99.99,,,0.00,Acu-Link.com,2013-09-17 04:42:00,
2013-09-17 00:57:00,64.8,-25.5,30.13,NE,45,10.4,-999.0,2,-99.99,,,0.00,Acu-Link.com,2013-09-17 04:57:00,
2013-09-17 01:12:00,64.4,63.5,30.14,NE,45,10.4,-999.0,97,-99.99,,,0.00,Acu-Link.com,2013-09-17 05:12:00,
2013-09-17 01:27:00,64.0,-38.4,30.15,NE,45,8.9,-999.0,1,-99.99,,,0.00,Acu-Link.com,2013-09-17 05:27:00,
2013-09-17 01:43:00,63.5,-38.7,30.14,NE,45,4.7,-999.0,1,-99.99,,,0.00,Acu-Link.com,2013-09-17 05:43:00,
2013-09-17 01:58:00,63.0,-39.0,30.15,NE,45,7.3,-999.0,1,-99.99,,,0.00,Acu-Link.com,2013-09-17 05:58:00,
2013-09-17 02:13:00,63.0,-39.0,30.15,NE,45,7.8,-999.0,1,-99.99,,,0.00,Acu-Link.com,2013-09-17 06:13:00,
2013-09-17 02:28:00,62.4,-2.5,30.15,North,0,8.3,-999.0,7,-99.99,,,0.00,Acu-Link.com,2013-09-17 06:28:00,
2013-09-17 02:43:00,62.4,-39.4,30.16,NNE,22,6.8,-999.0,1,-99.99,,,0.00,Acu-Link.com,2013-09-17 06:43:00,
2013-09-17 02:58:00,61.9,-27.4,30.17,NE,45,11.9,-999.0,2,-99.99,,,0.00,Acu-Link.com,2013-09-17 06:58:00,
2013-09-17 03:13:00,61.7,-39.8,30.18,NE,45,6.8,-999.0,1,-99.99,,,0.00,Acu-Link.com,2013-09-17 07:13:00,
2013-09-17 03:28:00,61.3,-40.1,30.18,NNE,22,8.3,-999.0,1,-99.99,,,0.00,Acu-Link.com,2013-09-17 07:28:00,
2013-09-17 03:43:00,60.8,-40.4,30.18,NE,45,7.3,-999.0,1,-99.99,,,0.00,Acu-Link.com,2013-09-17 07:43:00,
2013-09-17 03:58:00,60.6,-40.5,30.19,NNE,22,7.3,-999.0,1,-99.99,,,0.00,Acu-Link.com,2013-09-17 07:58:00,
2013-09-17 04:13:00,60.6,-40.5,30.19,NNE,22,8.3,-999.0,1,-99.99,,,0.00,Acu-Link.com,2013-09-17 08:13:00,
2013-09-17 04:28:00,60.1,-40.8,30.19,NE,45,13.5,-999.0,1,-99.99,,,0.00,Acu-Link.com,2013-09-17 08:28:00,
2013-09-17 04:43:00,60.1,-40.8,30.20,NNE,22,9.4,-999.0,1,-99.99,,,0.00,Acu-Link.com,2013-09-17 08:43:00,
2013-09-17 04:58:00,60.1,-40.8,30.20,NE,45,10.4,-999.0,1,-99.99,,,0.00,Acu-Link.com,2013-09-17 08:58:00,
2013-09-17 05:14:00,60.1,-40.8,30.21,North,0,9.4,-999.0,1,-99.99,,,0.00,Acu-Link.com,2013-09-17 09:14:00,
2013-09-17 05:29:00,59.7,-41.0,30.22,ENE,67,8.3,-999.0,1,-99.99,,,0.00,Acu-Link.com,2013-09-17 09:29:00,
2013-09-17 05:44:00,59.5,53.3,30.22,NNE,22,5.8,-999.0,80,-99.99,,,0.00,Acu-Link.com,2013-09-17 09:44:00,
2013-09-17 05:59:00,58.8,-29.4,30.23,North,0,9.4,-999.0,2,-99.99,,,0.00,Acu-Link.com,2013-09-17 09:59:00,
2013-09-17 06:14:00,58.3,-12.3,30.24,NE,45,9.9,-999.0,5,-99.99,,,0.00,Acu-Link.com,2013-09-17 10:14:00,
2013-09-17 06:29:00,55.8,-43.4,30.25,NNE,22,11.4,-999.0,1,-99.99,,,0.00,Acu-Link.com,2013-09-17 10:29:00,
2013-09-17 06:44:00,57.4,-42.4,30.25,NE,45,9.4,-999.0,1,-99.99,,,0.00,Acu-Link.com,2013-09-17 10:44:00,
2013-09-17 06:59:00,58.5,28.0,30.26,NNW,337,8.9,-999.0,31,-99.99,,,0.00,Acu-Link.com,2013-09-17 10:59:00,
2013-09-17 07:14:00,56.7,36.7,30.26,NW,315,11.4,-999.0,47,-99.99,,,0.00,Acu-Link.com,2013-09-17 11:14:00,
2013-09-17 07:29:00,57.2,-42.6,30.27,ENE,67,10.4,-999.0,1,-99.99,,,0.00,Acu-Link.com,2013-09-17 11:29:00,
2013-09-17 07:45:00,57.7,22.1,30.28,ENE,67,8.9,-999.0,25,-99.99,,,0.00,Acu-Link.com,2013-09-17 11:45:00,
2013-09-17 08:00:00,57.7,-42.3,30.29,NNE,22,7.3,-999.0,1,-99.99,,,0.00,Acu-Link.com,2013-09-17 12:00:00,
2013-09-17 08:15:00,57.6,-42.3,30.30,NE,45,7.3,-999.0,1,-99.99,,,0.00,Acu-Link.com,2013-09-17 12:15:00,
2013-09-17 08:30:00,58.3,-41.9,30.30,NE,45,8.9,-999.0,1,-99.99,,,0.00,Acu-Link.com,2013-09-17 12:30:00,
2013-09-17 08:45:00,58.6,-41.7,30.31,WNW,292,7.8,-999.0,1,-99.99,,,0.00,Acu-Link.com,2013-09-17 12:45:00,
2013-09-17 09:01:00,57.7,-42.3,30.32,NE,45,11.9,-999.0,1,-99.99,,,0.00,Acu-Link.com,2013-09-17 13:01:00,
2013-09-17 09:16:00,60.1,-40.8,30.32,NNE,22,6.3,-999.0,1,-99.99,,,0.00,Acu-Link.com,2013-09-17 13:16:00,
2013-09-17 09:31:00,59.9,-40.9,30.33,NE,45,8.9,-999.0,1,-99.99,,,0.00,Acu-Link.com,2013-09-17 13:31:00,
2013-09-17 09:46:00,60.3,-40.7,30.34,NE,45,7.8,-999.0,1,-99.99,,,0.00,Acu-Link.com,2013-09-17 13:46:00,
2013-09-17 10:01:00,60.8,-40.4,30.33,NW,315,6.8,-999.0,1,-99.99,,,0.00,Acu-Link.com,2013-09-17 14:01:00,
2013-09-17 10:16:00,60.4,-40.6,30.34,North,0,8.9,-999.0,1,-99.99,,,0.00,Acu-Link.com,2013-09-17 14:16:00,
2013-09-17 10:31:00,61.7,-39.8,30.34,NE,45,4.7,-999.0,1,-99.99,,,0.00,Acu-Link.com,2013-09-17 14:31:00,
2013-09-17 10:47:00,61.0,-40.2,30.35,NNE,22,10.9,-999.0,1,-99.99,,,0.00,Acu-Link.com,2013-09-17 14:47:00,
2013-09-17 11:02:00,61.5,-39.9,30.35,NNE,22,8.3,-999.0,1,-99.99,,,0.00,Acu-Link.com,2013-09-17 15:02:00,
2013-09-17 11:17:00,60.8,-40.4,30.35,NNE,22,5.8,-999.0,1,-99.99,,,0.00,Acu-Link.com,2013-09-17 15:17:00,
2013-09-17 11:32:00,60.4,-40.6,30.35,NNE,22,7.8,-999.0,1,-99.99,,,0.00,Acu-Link.com,2013-09-17 15:32:00,
2013-09-17 11:48:00,62.4,-39.4,30.35,NE,45,8.3,-999.0,1,-99.99,,,0.00,Acu-Link.com,2013-09-17 15:48:00,
2013-09-17 12:03:00,61.9,-39.7,30.35,NE,45,10.9,-999.0,1,-99.99,,,0.00,Acu-Link.com,2013-09-17 16:03:00,
2013-09-17 12:18:00,62.4,-39.4,30.34,ENE,67,6.8,-999.0,1,-99.99,,,0.00,Acu-Link.com,2013-09-17 16:18:00,
2013-09-17 12:33:00,62.8,-39.2,30.34,NE,45,8.9,-999.0,1,-99.99,,,0.00,Acu-Link.com,2013-09-17 16:33:00,
2013-09-17 12:48:00,62.8,-39.2,30.34,NE,45,9.9,-999.0,1,-99.99,,,0.00,Acu-Link.com,2013-09-17 16:48:00,
2013-09-17 13:03:00,62.2,-39.5,30.34,NNE,22,7.8,-999.0,1,-99.99,,,0.00,Acu-Link.com,2013-09-17 17:03:00,
2013-09-17 13:18:00,62.8,-39.2,30.34,East,90,6.8,-999.0,1,-99.99,,,0.00,Acu-Link.com,2013-09-17 17:18:00,
2013-09-17 13:33:00,62.1,-39.6,30.34,North,0,10.4,-999.0,1,-99.99,,,0.00,Acu-Link.com,2013-09-17 17:33:00,
2013-09-17 13:48:00,63.0,-39.0,30.33,ENE,67,10.4,-999.0,1,-99.99,,,0.00,Acu-Link.com,2013-09-17 17:48:00,
2013-09-17 14:03:00,62.8,-39.2,30.33,NNE,22,9.9,-999.0,1,-99.99,,,0.00,Acu-Link.com,2013-09-17 18:03:00,
2013-09-17 14:18:00,63.0,-39.0,30.33,ENE,67,9.9,-999.0,1,-99.99,,,0.00,Acu-Link.com,2013-09-17 18:18:00,
2013-09-17 14:33:00,62.4,-39.4,30.32,ENE,67,7.8,-999.0,1,-99.99,,,0.00,Acu-Link.com,2013-09-17 18:33:00,
2013-09-17 14:49:00,61.9,-39.7,30.31,NNE,22,6.8,-999.0,1,-99.99,,,0.00,Acu-Link.com,2013-09-17 18:49:00,
2013-09-17 15:04:00,62.8,-39.2,30.32,ENE,67,5.3,-999.0,1,-99.99,,,0.00,Acu-Link.com,2013-09-17 19:04:00,
2013-09-17 15:19:00,63.5,-38.7,30.30,East,90,5.8,-999.0,1,-99.99,,,0.00,Acu-Link.com,2013-09-17 19:19:00,
2013-09-17 15:34:00,62.8,-39.2,30.30,ESE,112,9.9,-999.0,1,-99.99,,,0.00,Acu-Link.com,2013-09-17 19:34:00,
2013-09-17 15:49:00,63.0,-39.0,30.30,ENE,67,7.8,-999.0,1,-99.99,,,0.00,Acu-Link.com,2013-09-17 19:49:00,
2013-09-17 16:04:00,62.6,-39.3,30.29,NE,45,7.3,-999.0,1,-99.99,,,0.00,Acu-Link.com,2013-09-17 20:04:00,
2013-09-17 16:20:00,62.2,-39.5,30.29,NE,45,6.8,-999.0,1,-99.99,,,0.00,Acu-Link.com,2013-09-17 20:20:00,
2013-09-17 16:35:00,62.4,-39.4,30.29,NE,45,5.3,-999.0,1,-99.99,,,0.00,Acu-Link.com,2013-09-17 20:35:00,
2013-09-17 16:50:00,62.2,-39.5,30.29,NNE,22,3.7,-999.0,1,-99.99,,,0.00,Acu-Link.com,2013-09-17 20:50:00,
2013-09-17 17:06:00,61.9,-39.7,30.29,NNE,22,8.3,-999.0,1,-99.99,,,0.00,Acu-Link.com,2013-09-17 21:06:00,
2013-09-17 17:23:00,61.3,-40.1,30.29,ENE,67,6.3,-999.0,1,-99.99,,,0.00,Acu-Link.com,2013-09-17 21:23:00,
2013-09-17 17:38:00,61.2,-40.1,30.29,NNE,22,9.9,-999.0,1,-99.99,,,0.00,Acu-Link.com,2013-09-17 21:38:00,
2013-09-17 17:53:00,61.7,-39.8,30.28,ENE,67,2.7,-999.0,1,-99.99,,,0.00,Acu-Link.com,2013-09-17 21:53:00,
2013-09-17 18:10:00,60.8,-40.4,30.28,NE,45,5.3,-999.0,1,-99.99,,,0.00,Acu-Link.com,2013-09-17 22:10:00,
2013-09-17 18:25:00,60.8,-40.4,30.28,NE,45,6.8,-999.0,1,-99.99,,,0.00,Acu-Link.com,2013-09-17 22:25:00,
2013-09-17 18:41:00,59.9,-40.9,30.28,NE,45,7.3,-999.0,1,-99.99,,,0.00,Acu-Link.com,2013-09-17 22:41:00,
2013-09-17 18:56:00,59.5,-41.2,30.28,NE,45,3.7,-999.0,1,-99.99,,,0.00,Acu-Link.com,2013-09-17 22:56:00,
2013-09-17 19:11:00,59.2,-41.3,30.28,NE,45,3.7,-999.0,1,-99.99,,,0.00,Acu-Link.com,2013-09-17 23:11:00,
2013-09-17 19:26:00,59.4,-41.2,30.28,NE,45,5.3,-999.0,1,-99.99,,,0.00,Acu-Link.com,2013-09-17 23:26:00,
2013-09-17 19:42:00,59.4,-41.2,30.28,NE,45,5.3,-999.0,1,-99.99,,,0.00,Acu-Link.com,2013-09-17 23:42:00,
2013-09-17 19:58:00,59.5,-41.2,30.28,ENE,67,4.7,-999.0,1,-99.99,,,0.00,Acu-Link.com,2013-09-17 23:58:00,
2013-09-17 20:13:00,59.4,-41.2,30.28,NE,45,5.8,-999.0,1,-99.99,,,0.00,Acu-Link.com,2013-09-18 00:13:00,
2013-09-17 20:28:00,59.4,-41.2,30.28,NE,45,2.2,-999.0,1,-99.99,,,0.00,Acu-Link.com,2013-09-18 00:28:00,
2013-09-17 20:43:00,59.2,-41.3,30.28,East,90,4.7,-999.0,1,-99.99,,,0.00,Acu-Link.com,2013-09-18 00:43:00,
2013-09-17 20:59:00,59.5,-41.2,30.29,East,90,4.2,-999.0,1,-99.99,,,0.00,Acu-Link.com,2013-09-18 00:59:00,
2013-09-17 21:14:00,59.4,-41.2,30.29,East,90,4.2,-999.0,1,-99.99,,,0.00,Acu-Link.com,2013-09-18 01:14:00,
2013-09-17 21:29:00,59.5,-41.2,30.28,East,90,4.2,-999.0,1,-99.99,,,0.00,Acu-Link.com,2013-09-18 01:29:00,
2013-09-17 21:44:00,59.9,-40.9,30.29,ENE,67,2.2,-999.0,1,-99.99,,,0.00,Acu-Link.com,2013-09-18 01:44:00,
2013-09-17 21:59:00,59.7,-41.0,30.29,NE,45,4.2,-999.0,1,-99.99,,,0.00,Acu-Link.com,2013-09-18 01:59:00,
2013-09-17 22:15:00,59.9,-40.9,30.29,NE,45,2.2,-999.0,1,-99.99,,,0.00,Acu-Link.com,2013-09-18 02:15:00,
2013-09-17 22:30:00,59.9,-40.9,30.29,NE,45,4.7,-999.0,1,-99.99,,,0.00,Acu-Link.com,2013-09-18 02:30:00,
2013-09-17 22:45:00,59.9,-40.9,30.29,ENE,67,4.2,-999.0,1,-99.99,,,0.00,Acu-Link.com,2013-09-18 02:45:00,
2013-09-17 23:00:00,59.9,-40.9,30.29,NE,45,6.3,-999.0,1,-99.99,,,0.00,Acu-Link.com,2013-09-18 03:00:00,
2013-09-17 23:16:00,59.9,-40.9,30.29,NE,45,5.3,-999.0,1,-99.99,,,0.00,Acu-Link.com,2013-09-18 03:16:00,
2013-09-17 23:31:00,59.7,-41.0,30.29,NE,45,3.2,-999.0,1,-99.99,,,0.00,Acu-Link.com,2013-09-18 03:31:00,
2013-09-17 23:46:00,59.5,-41.2,30.28,NE,45,4.7,-999.0,1,-99.99,,,0.00,Acu-Link.com,2013-09-18 03:46:00,